createdAt,value
2022-09-04T00:03:35.525Z,1.3
2022-09-04T00:09:21.540Z,1.5
2022-09-04T00:15:09.279Z,1.6
2022-09-04T00:20:57.250Z,1.6
2022-09-04T00:26:51.282Z,1.5
2022-09-04T00:32:39.842Z,1.7
2022-09-04T00:38:24.941Z,1.7
2022-09-04T00:44:22.522Z,1.5
2022-09-04T00:50:14.767Z,1.5
2022-09-04T00:56:05.659Z,1.5
2022-09-04T01:01:49.608Z,1.3
2022-09-04T01:07:40.067Z,1.7
2022-09-04T01:13:29.975Z,1.5
2022-09-04T01:19:18.214Z,1.4
2022-09-04T01:25:05.857Z,1.6
2022-09-04T01:30:51.922Z,1.6
2022-09-04T01:36:38.185Z,1.6
2022-09-04T01:42:24.794Z,1.6
2022-09-04T01:48:08.871Z,1.5
2022-09-04T01:53:55.129Z,1.3
2022-09-04T01:59:43.215Z,1.5
2022-09-04T02:05:30.599Z,1.4
2022-09-04T02:11:17.282Z,1.4
2022-09-04T02:17:07.378Z,1.6
2022-09-04T02:22:55.562Z,1.6
2022-09-04T02:28:46.194Z,1.5
2022-09-04T02:34:33.194Z,1.4
2022-09-04T02:40:20.882Z,1.5
2022-09-04T02:46:07.204Z,1.6
2022-09-04T02:52:02.196Z,1.5
2022-09-04T02:57:53.322Z,1.7
2022-09-04T03:03:41.439Z,1.8
2022-09-04T03:09:31.109Z,1.6
2022-09-04T03:15:19.075Z,1.9
2022-09-04T03:21:05.098Z,2.1
2022-09-04T03:26:49.946Z,2
2022-09-04T03:32:36.655Z,2
2022-09-04T03:38:26.550Z,1.8
2022-09-04T03:44:17.303Z,2
2022-09-04T03:50:07.272Z,2.1
2022-09-04T03:56:05.137Z,2.1
2022-09-04T04:01:55.122Z,2
2022-09-04T04:07:44.124Z,2.2
2022-09-04T04:13:37.718Z,2.2
2022-09-04T04:19:30.578Z,2.2
2022-09-04T04:25:22.411Z,2.2
2022-09-04T04:31:11.274Z,2.1
2022-09-04T04:36:57.870Z,2
2022-09-04T04:42:44.745Z,1.9
2022-09-04T04:48:35.424Z,2.2
2022-09-04T04:54:32.514Z,2.1
2022-09-04T05:00:17.295Z,2.1
2022-09-04T05:06:02.973Z,2
2022-09-04T05:11:51.875Z,2
2022-09-04T05:17:40.736Z,2
2022-09-04T05:23:31.291Z,1.9
2022-09-04T05:29:20.887Z,2.1
2022-09-04T05:35:12.209Z,2.4
2022-09-04T05:41:03.239Z,2.4
2022-09-04T05:46:54.226Z,2.3
2022-09-04T05:52:49.082Z,2.5
2022-09-04T05:58:40.111Z,2.6
2022-09-04T06:04:34.439Z,2.6
2022-09-04T06:10:21.372Z,2.2
2022-09-04T06:16:19.403Z,2.3
2022-09-04T06:22:14.573Z,2.2
2022-09-04T06:28:13.398Z,2.4
2022-09-04T06:34:02.134Z,2.3
2022-09-04T06:39:55.685Z,2.4
2022-09-04T06:45:44.837Z,2.4
2022-09-04T06:51:34.639Z,2.2
2022-09-04T06:57:26.269Z,2.5
2022-09-04T07:03:20.804Z,2.5
2022-09-04T07:09:09.363Z,2.3
2022-09-04T07:15:00.596Z,2.5
2022-09-04T07:20:51.546Z,2.7
2022-09-04T07:26:38.447Z,2.5
2022-09-04T07:32:23.855Z,2.5
2022-09-04T07:38:13.787Z,2.6
2022-09-04T07:44:01.430Z,2.4
2022-09-04T07:49:51.143Z,1.9
2022-09-04T07:55:42.625Z,1.7
2022-09-04T08:01:42.442Z,1.7
2022-09-04T08:07:30.443Z,1.6
2022-09-04T08:13:27.384Z,1.8
2022-09-04T08:19:17.734Z,1.6
2022-09-04T08:25:06.636Z,1.6
2022-09-04T08:30:55.393Z,1.7
2022-09-04T08:36:44.227Z,1.7
2022-09-04T08:42:38.638Z,1.6
2022-09-04T08:48:31.487Z,1.3
2022-09-04T08:54:42.235Z,1.5
2022-09-04T09:00:30.632Z,1.5
2022-09-04T09:06:30.598Z,1.6
2022-09-04T09:12:25.112Z,1.6
2022-09-04T09:18:21.930Z,1.6
2022-09-04T09:24:16.738Z,1.4
2022-09-04T09:30:16.775Z,1.3
2022-09-04T09:36:17.363Z,1.4
2022-09-04T09:42:12.239Z,1.4
2022-09-04T09:48:12.742Z,1.4
2022-09-04T09:54:10.078Z,1.3
2022-09-04T10:00:01.746Z,1.4
2022-09-04T10:06:00.869Z,1.5
2022-09-04T10:11:58.423Z,1.3
2022-09-04T10:17:53.158Z,1.4
2022-09-04T10:23:47.660Z,1.3
2022-09-04T10:29:38.782Z,1.3
2022-09-04T10:35:24.727Z,1.1
2022-09-04T10:41:19.537Z,1.4
2022-09-04T10:47:10.414Z,1.2
2022-09-04T10:53:13.671Z,1.4
2022-09-04T10:59:14.402Z,1.2
2022-09-04T11:05:12.195Z,1.3
2022-09-04T11:11:08.230Z,1.3
2022-09-04T11:17:04.704Z,1
2022-09-04T11:23:01.039Z,1.1
2022-09-04T11:28:59.454Z,1.1
2022-09-04T11:34:53.738Z,1.1
2022-09-04T11:40:49.397Z,1.2
2022-09-04T11:46:44.118Z,1.2
2022-09-04T11:52:33.531Z,1.2
2022-09-04T11:58:27.394Z,1.1
2022-09-04T12:04:22.725Z,1.3
2022-09-04T12:10:19.557Z,1.2
2022-09-04T12:16:16.948Z,1.2
2022-09-04T12:22:14.358Z,1.1
2022-09-04T12:28:06.640Z,1.1
2022-09-04T12:34:04.301Z,1.2
2022-09-04T12:40:01.684Z,1.3
2022-09-04T12:45:53.542Z,1.4
2022-09-04T12:51:45.086Z,1.3
2022-09-04T12:57:33.989Z,1.2
2022-09-04T13:03:23.239Z,1.3
2022-09-04T13:09:12.693Z,1.1
2022-09-04T13:15:03.544Z,1
2022-09-04T13:20:52.501Z,1
2022-09-04T13:26:41.399Z,1.1
2022-09-04T13:32:35.103Z,1
2022-09-04T13:38:26.539Z,0.9
2022-09-04T13:44:18.384Z,1.1
2022-09-04T13:50:04.194Z,1
2022-09-04T13:55:52.008Z,1.2
2022-09-04T14:01:38.683Z,0.9
2022-09-04T14:07:25.326Z,1
2022-09-04T14:13:14.794Z,1
2022-09-04T14:19:17.165Z,1.1
2022-09-04T14:25:13.005Z,1.1
2022-09-04T14:31:10.503Z,0.9
2022-09-04T14:36:58.152Z,1
2022-09-04T14:42:47.178Z,1
2022-09-04T14:48:35.450Z,1.2
2022-09-04T14:54:24.606Z,1.1
2022-09-04T15:00:11.770Z,1.1
2022-09-04T15:05:57.543Z,1.2
2022-09-04T15:11:41.036Z,1
2022-09-04T15:17:27.517Z,0.9
2022-09-04T15:23:16.231Z,1
2022-09-04T15:29:03.972Z,0.9
2022-09-04T15:34:47.827Z,1.1
2022-09-04T15:40:34.408Z,1.1
2022-09-04T15:46:21.698Z,0.9
2022-09-04T15:52:13.084Z,0.9
2022-09-04T15:58:01.395Z,1
2022-09-04T16:03:50.107Z,1.2
2022-09-04T16:09:35.526Z,1
2022-09-04T16:15:22.793Z,1
2022-09-04T16:21:10.374Z,1.2
2022-09-04T16:26:55.756Z,0.9
2022-09-04T16:32:48.067Z,0.9
2022-09-04T16:38:33.867Z,1.1
2022-09-04T16:44:28.706Z,1.2
2022-09-04T16:50:18.301Z,1.1
2022-09-04T16:56:04.350Z,1
2022-09-04T17:01:50.938Z,1
2022-09-04T17:07:39.158Z,1.3
2022-09-04T17:13:29.973Z,1.4
2022-09-04T17:19:18.993Z,1.3
2022-09-04T17:29:05.718Z,1.4
2022-09-04T17:31:15.839Z,1.4
2022-09-04T17:40:34.520Z,1.3
2022-09-04T17:43:24.978Z,1.5
2022-09-04T17:49:14.531Z,1.6
2022-09-04T17:54:58.575Z,1.6
2022-09-04T18:00:48.006Z,1.5
2022-09-04T18:06:36.310Z,1.5
2022-09-04T18:12:23.800Z,1.5
2022-09-04T18:18:13.807Z,1.3
2022-09-04T18:24:02.531Z,1.3
2022-09-04T18:30:17.471Z,1.5
2022-09-04T18:37:14.652Z,1.4
2022-09-04T18:43:50.964Z,1.6
2022-09-04T18:50:27.417Z,1.6
2022-09-04T18:54:30.729Z,1.5
2022-09-04T19:00:19.742Z,1.7
2022-09-04T19:06:11.471Z,1.5
2022-09-04T19:11:57.089Z,1.6
2022-09-04T19:17:41.160Z,1.4
2022-09-04T19:23:29.112Z,1.4
2022-09-04T19:29:18.452Z,1.5
2022-09-04T19:35:05.237Z,1.4
2022-09-04T19:44:49.044Z,1.3
2022-09-04T19:47:03.212Z,1.4
2022-09-04T19:53:20.856Z,1.4
2022-09-04T19:58:56.740Z,1.3
2022-09-04T20:04:44.832Z,1.4
2022-09-04T20:10:32.751Z,1.2
2022-09-04T20:16:23.749Z,1.3
2022-09-04T20:22:12.174Z,1.5
2022-09-04T20:27:58.299Z,1.4
2022-09-04T20:33:43.915Z,1.5
2022-09-04T20:39:29.836Z,1.4
2022-09-04T20:46:46.957Z,1.2
2022-09-04T20:53:00.792Z,1.2
2022-09-04T20:58:40.369Z,1.4
2022-09-04T21:03:39.930Z,1.4
2022-09-04T21:09:30.456Z,1.4
2022-09-04T21:15:20.043Z,1.2
2022-09-04T21:21:10.971Z,1.4
2022-09-04T21:27:07.885Z,1.4
2022-09-04T21:33:20.887Z,1.3
2022-09-04T21:39:19.509Z,1.4
2022-09-04T21:45:13.455Z,1.3
2022-09-04T21:51:29.057Z,1.7
2022-09-04T22:01:30.555Z,1.4
2022-09-04T22:03:37.060Z,1.5
2022-09-04T22:12:35.189Z,1.4
2022-09-04T22:15:35.382Z,1.6
2022-09-04T22:21:26.494Z,1.5
2022-09-04T22:27:20.978Z,1.4
2022-09-04T22:33:21.371Z,1.3
2022-09-04T22:39:32.928Z,1.4
2022-09-04T22:45:30.963Z,1.5
2022-09-04T22:51:19.246Z,1.5
2022-09-04T22:57:08.022Z,1.4
2022-09-04T23:03:12.837Z,1.6
2022-09-04T23:12:23.427Z,1.5
2022-09-04T23:15:15.319Z,1.5
2022-09-04T23:23:18.744Z,1.4
2022-09-04T23:27:29.639Z,1.6
2022-09-04T23:33:30.046Z,1.4
2022-09-04T23:39:27.893Z,1.4
2022-09-04T23:45:48.757Z,1.5
2022-09-04T23:51:39.582Z,1.4
2022-09-04T23:57:28.887Z,1.5
